Time;durP1;ratioP1;P1;durP2;ratioP2;P2;SDS_P1;SDS_P2;PMS_P1;PMS_P2;Temp;Humidity;BMP_temperature;BMP_pressure;BME280_temperature;BME280_humidity;BME280_pressure;Samples;Min_cycle;Max_cycle;Signal;HPM_P1;HPM_P2
2023/11/01 00:00:38;;;;;;;0.10;0.10;;;12.00;99.90;;;;;;5068658;28;20698;-78
2023/11/01 00:03:04;;;;;;;0.10;0.10;;;12.00;99.90;;;;;;5070513;28;20181;-78
2023/11/01 00:05:29;;;;;;;0.10;0.10;;;12.00;99.90;;;;;;5070787;28;20188;-78
2023/11/01 00:07:55;;;;;;;0.10;0.10;;;12.10;99.90;;;;;;5064797;28;20261;-78
2023/11/01 00:10:21;;;;;;;0.10;0.10;;;12.20;99.90;;;;;;5071595;28;20185;-78
2023/11/01 00:12:46;;;;;;;0.10;0.10;;;12.30;99.90;;;;;;5068579;28;20205;-78
2023/11/01 00:15:12;;;;;;;0.10;0.10;;;12.20;99.90;;;;;;5069793;28;20185;-78
2023/11/01 00:17:37;;;;;;;0.10;0.10;;;12.10;99.90;;;;;;5065801;28;20181;-78
2023/11/01 00:20:04;;;;;;;0.10;0.10;;;12.20;99.90;;;;;;5067582;28;20703;-78
2023/11/01 00:22:30;;;;;;;0.10;0.10;;;12.20;99.90;;;;;;5070936;28;20228;-78
2023/11/01 00:24:56;;;;;;;0.10;0.10;;;12.30;99.90;;;;;;5065265;28;20186;-78
2023/11/01 00:27:21;;;;;;;0.00;0.00;;;12.30;99.90;;;;;;5068827;28;20250;-78
2023/11/01 00:29:47;;;;;;;0.00;0.00;;;12.40;99.90;;;;;;5066264;28;20174;-78
2023/11/01 00:32:14;;;;;;;0.10;0.10;;;12.40;99.90;;;;;;5068564;28;20724;-78
2023/11/01 00:34:40;;;;;;;0.00;0.00;;;12.50;99.90;;;;;;5069757;28;20187;-78
2023/11/01 00:37:05;;;;;;;0.10;0.10;;;12.50;99.90;;;;;;5070823;28;20233;-78
2023/11/01 00:39:31;;;;;;;0.00;0.00;;;12.60;99.90;;;;;;5068045;28;20559;-78
2023/11/01 00:41:56;;;;;;;0.10;0.10;;;12.60;99.90;;;;;;5060704;28;20222;-78
2023/11/01 00:44:22;;;;;;;0.10;0.10;;;12.60;99.90;;;;;;5071050;28;20192;-78
2023/11/01 00:46:47;;;;;;;0.00;0.00;;;12.60;99.90;;;;;;5070809;28;20218;-78
2023/11/01 00:49:13;;;;;;;0.10;0.10;;;12.60;99.90;;;;;;5067458;28;20221;-78
2023/11/01 00:51:38;;;;;;;0.10;0.10;;;12.60;99.90;;;;;;5069099;28;20651;-78
2023/11/01 00:54:05;;;;;;;0.10;0.10;;;12.60;99.90;;;;;;5070079;28;20619;-78
2023/11/01 00:56:31;;;;;;;0.10;0.10;;;12.70;99.90;;;;;;5071023;28;20250;-78
2023/11/01 00:58:56;;;;;;;0.10;0.10;;;12.70;99.90;;;;;;5064151;28;20650;-78
2023/11/01 01:01:23;;;;;;;0.10;0.10;;;12.50;99.90;;;;;;5066570;28;20260;-78
2023/11/01 01:03:48;;;;;;;0.10;0.10;;;12.60;99.90;;;;;;5068515;28;20203;-77
2023/11/01 01:06:14;;;;;;;0.10;0.10;;;12.50;99.90;;;;;;5070918;28;20583;-77
2023/11/01 01:08:39;;;;;;;0.10;0.10;;;12.60;99.90;;;;;;5070321;28;20691;-77
2023/11/01 01:11:05;;;;;;;0.10;0.10;;;12.60;99.90;;;;;;5065357;28;20238;-77
2023/11/01 01:13:31;;;;;;;0.10;0.10;;;12.50;99.90;;;;;;5070764;28;20192;-77
2023/11/01 01:15:56;;;;;;;0.10;0.10;;;12.50;99.90;;;;;;5066144;28;20192;-77
2023/11/01 01:18:22;;;;;;;0.10;0.10;;;12.50;99.90;;;;;;5064761;28;20672;-77
2023/11/01 01:20:48;;;;;;;0.10;0.10;;;12.30;99.90;;;;;;5069639;28;20194;-77
2023/11/01 01:23:14;;;;;;;0.10;0.10;;;12.20;99.90;;;;;;5067973;28;20185;-77
2023/11/01 01:25:40;;;;;;;0.10;0.10;;;12.10;99.90;;;;;;5070620;28;20190;-78
2023/11/01 01:28:05;;;;;;;0.10;0.10;;;12.00;99.90;;;;;;5068687;28;20173;-77
2023/11/01 01:30:31;;;;;;;0.10;0.10;;;11.90;99.90;;;;;;5068863;28;20288;-77
2023/11/01 01:32:57;;;;;;;0.10;0.10;;;11.90;99.90;;;;;;5067275;28;20207;-77
2023/11/01 01:35:23;;;;;;;0.10;0.10;;;12.00;99.90;;;;;;5068232;28;20224;-77
2023/11/01 01:37:49;;;;;;;0.10;0.10;;;11.90;99.90;;;;;;5069715;28;20184;-77
2023/11/01 01:40:14;;;;;;;0.10;0.10;;;12.10;99.90;;;;;;5069098;28;20204;-77
2023/11/01 01:42:40;;;;;;;0.10;0.10;;;12.20;99.90;;;;;;5069930;28;20672;-77
2023/11/01 01:45:06;;;;;;;0.10;0.10;;;12.30;99.90;;;;;;5063204;28;20203;-77
2023/11/01 01:47:33;;;;;;;0.10;0.10;;;12.40;99.90;;;;;;5069366;28;20213;-78
2023/11/01 01:50:00;;;;;;;0.10;0.10;;;12.40;99.90;;;;;;5065568;28;20248;-77
2023/11/01 01:52:26;;;;;;;0.10;0.10;;;12.50;99.90;;;;;;5069225;28;20212;-77
2023/11/01 01:54:51;;;;;;;0.10;0.10;;;12.60;99.90;;;;;;5066310;28;20178;-78
2023/11/01 01:57:24;;;;;;;0.10;0.10;;;12.70;99.90;;;;;;5069569;28;20191;-78
2023/11/01 01:59:52;;;;;;;0.10;0.10;;;12.60;99.90;;;;;;5069722;28;20173;-78
2023/11/01 02:02:19;;;;;;;0.00;0.00;;;12.50;99.90;;;;;;5063630;28;20225;-78
2023/11/01 02:04:44;;;;;;;0.10;0.10;;;12.60;99.90;;;;;;5069470;28;20182;-77
2023/11/01 02:07:10;;;;;;;0.10;0.10;;;12.60;99.90;;;;;;5067260;28;20209;-78
2023/11/01 02:09:36;;;;;;;0.10;0.10;;;12.70;99.90;;;;;;5063851;28;20197;-78
2023/11/01 02:12:01;;;;;;;0.10;0.10;;;12.80;99.90;;;;;;5069447;28;20220;-78
2023/11/01 02:14:27;;;;;;;0.10;0.10;;;12.80;99.90;;;;;;5068343;28;20229;-78
2023/11/01 02:16:52;;;;;;;0.10;0.10;;;12.80;99.90;;;;;;5062819;28;20201;-78
2023/11/01 02:19:21;;;;;;;0.10;0.10;;;12.80;99.90;;;;;;5068705;28;20196;-78
2023/11/01 02:21:47;;;;;;;0.10;0.10;;;12.90;99.90;;;;;;5066081;28;20731;-79
2023/11/01 02:24:13;;;;;;;0.10;0.10;;;12.80;99.90;;;;;;5068677;28;20194;-78
2023/11/01 02:26:39;;;;;;;0.10;0.10;;;12.90;99.90;;;;;;5068259;28;20300;-78
2023/11/01 02:29:05;;;;;;;0.10;0.10;;;12.90;99.90;;;;;;5069130;28;20177;-78
2023/11/01 02:31:30;;;;;;;0.10;0.10;;;12.80;99.90;;;;;;5066434;28;20687;-78
2023/11/01 02:33:56;;;;;;;0.10;0.10;;;12.80;99.90;;;;;;5066475;28;20172;-78
2023/11/01 02:36:21;;;;;;;0.10;0.10;;;12.80;99.90;;;;;;5068986;28;20184;-78
2023/11/01 02:38:47;;;;;;;0.10;0.10;;;12.90;99.90;;;;;;5065935;28;20667;-77
2023/11/01 02:41:14;;;;;;;0.10;0.10;;;12.90;99.90;;;;;;5063905;28;20692;-78
2023/11/01 02:43:39;;;;;;;0.10;0.10;;;12.90;99.90;;;;;;5065408;28;20194;-78
2023/11/01 02:46:05;;;;;;;0.10;0.10;;;13.00;99.90;;;;;;5067913;28;20198;-79
2023/11/01 02:48:30;;;;;;;0.10;0.10;;;13.00;99.90;;;;;;5067374;28;20575;-78
2023/11/01 02:50:56;;;;;;;0.10;0.10;;;13.00;99.90;;;;;;5065108;28;20209;-78
2023/11/01 02:53:22;;;;;;;0.10;0.10;;;13.00;99.90;;;;;;5068600;28;20262;-78
2023/11/01 02:55:47;;;;;;;0.10;0.10;;;13.00;99.90;;;;;;5067179;28;20237;-77
2023/11/01 02:58:13;;;;;;;0.10;0.10;;;13.00;99.90;;;;;;5068691;28;20269;-78
2023/11/01 03:00:38;;;;;;;0.10;0.10;;;13.00;99.90;;;;;;5069148;28;20187;-78
2023/11/01 03:03:04;;;;;;;0.10;0.10;;;13.10;99.90;;;;;;5065518;28;20183;-78
2023/11/01 03:05:30;;;;;;;0.10;0.10;;;13.00;99.90;;;;;;5068453;28;20179;-78
2023/11/01 03:07:56;;;;;;;0.10;0.10;;;13.00;99.90;;;;;;5069112;28;20181;-77
2023/11/01 03:10:22;;;;;;;0.10;0.10;;;13.00;99.90;;;;;;5069021;28;20651;-78
2023/11/01 03:12:48;;;;;;;0.10;0.10;;;13.00;99.90;;;;;;5065314;28;20203;-78
2023/11/01 03:15:13;;;;;;;0.10;0.10;;;13.10;99.90;;;;;;5068825;28;20550;-78
2023/11/01 03:17:39;;;;;;;0.10;0.10;;;13.10;99.90;;;;;;5067459;28;20176;-78
2023/11/01 03:20:07;;;;;;;0.10;0.10;;;13.10;99.90;;;;;;5068683;28;20186;-78
2023/11/01 03:22:33;;;;;;;0.10;0.10;;;13.10;99.90;;;;;;5068630;28;20206;-78
2023/11/01 03:24:59;;;;;;;0.10;0.10;;;13.00;99.90;;;;;;5068720;28;20186;-77
2023/11/01 03:27:24;;;;;;;0.10;0.10;;;13.10;99.90;;;;;;5068222;28;20210;-77
2023/11/01 03:29:52;;;;;;;0.10;0.10;;;13.00;99.90;;;;;;5067438;28;20186;-78
2023/11/01 03:32:18;;;;;;;0.10;0.10;;;13.00;99.90;;;;;;5067498;28;20264;-78
2023/11/01 03:34:44;;;;;;;0.10;0.10;;;13.10;99.90;;;;;;5067695;28;20181;-77
2023/11/01 03:37:10;;;;;;;0.10;0.10;;;13.00;99.90;;;;;;5066645;28;20215;-78
2023/11/01 03:39:35;;;;;;;0.10;0.10;;;13.00;99.90;;;;;;5064499;28;20749;-77
2023/11/01 03:42:04;;;;;;;0.10;0.10;;;13.00;99.90;;;;;;5067452;28;20209;-78
2023/11/01 03:44:33;;;;;;;0.10;0.10;;;12.90;99.90;;;;;;5067575;28;20191;-77
2023/11/01 03:47:00;;;;;;;0.10;0.10;;;12.90;99.90;;;;;;5066686;28;20219;-77
2023/11/01 03:49:29;;;;;;;0.10;0.10;;;12.90;99.90;;;;;;5067415;28;20183;-77
2023/11/01 03:51:58;;;;;;;0.10;0.10;;;12.90;99.90;;;;;;5064216;28;20350;-77
2023/11/01 03:54:24;;;;;;;0.10;0.10;;;12.90;99.90;;;;;;5067064;28;20173;-77
2023/11/01 03:56:49;;;;;;;0.10;0.10;;;13.00;99.90;;;;;;5071018;28;20195;-77
2023/11/01 03:59:15;;;;;;;0.10;0.10;;;12.80;99.90;;;;;;5068935;28;20301;-77
2023/11/01 04:01:41;;;;;;;0.10;0.10;;;12.80;99.90;;;;;;5062496;28;20301;-77
2023/11/01 04:04:06;;;;;;;0.10;0.10;;;12.50;99.90;;;;;;5071121;28;20179;-77
2023/11/01 04:06:32;;;;;;;0.10;0.10;;;12.40;99.90;;;;;;5069643;28;20203;-78
2023/11/01 04:08:58;;;;;;;0.10;0.10;;;12.50;99.90;;;;;;5071195;28;20524;-77
2023/11/01 04:11:24;;;;;;;0.10;0.10;;;12.50;99.90;;;;;;5070774;28;20223;-77
2023/11/01 04:13:50;;;;;;;0.10;0.10;;;12.60;99.90;;;;;;5070183;28;20183;-77
2023/11/01 04:16:15;;;;;;;0.10;0.10;;;12.70;99.90;;;;;;5068170;28;20690;-77
2023/11/01 04:18:42;;;;;;;0.10;0.10;;;12.70;99.90;;;;;;5070956;28;20223;-77
2023/11/01 04:21:07;;;;;;;0.10;0.10;;;12.80;99.90;;;;;;5069984;28;20223;-77
2023/11/01 04:23:34;;;;;;;0.10;0.10;;;12.80;99.90;;;;;;5063605;28;20195;-78
2023/11/01 04:26:00;;;;;;;0.10;0.10;;;12.80;99.90;;;;;;5070405;28;20294;-78
2023/11/01 04:28:26;;;;;;;0.10;0.10;;;12.80;99.90;;;;;;5068555;28;20270;-78
2023/11/01 04:30:51;;;;;;;0.10;0.10;;;12.80;99.90;;;;;;5067889;28;20184;-79
2023/11/01 04:33:16;;;;;;;0.10;0.10;;;12.70;99.90;;;;;;5070911;28;20262;-78
2023/11/01 04:35:42;;;;;;;0.10;0.10;;;12.70;99.90;;;;;;5068914;28;20727;-78
2023/11/01 04:38:08;;;;;;;0.10;0.10;;;12.70;99.90;;;;;;5069263;28;20181;-78
2023/11/01 04:40:34;;;;;;;0.10;0.10;;;12.50;99.90;;;;;;5070004;28;20643;-78
2023/11/01 04:43:00;;;;;;;0.10;0.10;;;12.60;99.90;;;;;;5071150;28;20198;-78
2023/11/01 04:45:25;;;;;;;0.10;0.10;;;12.70;99.90;;;;;;5064963;28;20239;-78
2023/11/01 04:47:51;;;;;;;0.10;0.10;;;12.70;99.90;;;;;;5069686;28;20210;-78
2023/11/01 04:50:17;;;;;;;0.10;0.10;;;12.50;99.90;;;;;;5066416;28;20259;-78
2023/11/01 04:52:43;;;;;;;0.10;0.10;;;12.60;99.90;;;;;;5070092;28;20206;-78
2023/11/01 04:55:10;;;;;;;0.10;0.10;;;12.60;99.90;;;;;;5067180;28;20178;-78
2023/11/01 04:57:36;;;;;;;0.10;0.10;;;12.60;99.90;;;;;;5069999;28;20232;-77
2023/11/01 05:00:08;;;;;;;0.10;0.10;;;12.70;99.90;;;;;;5070517;28;20672;-77
2023/11/01 05:02:35;;;;;;;0.10;0.10;;;12.80;99.90;;;;;;5065386;28;20237;-77
2023/11/01 05:05:03;;;;;;;0.10;0.10;;;12.90;99.90;;;;;;5063200;28;20281;-77
2023/11/01 05:07:28;;;;;;;0.10;0.10;;;12.90;99.90;;;;;;5068842;28;20202;-78
2023/11/01 05:09:54;;;;;;;0.03;0.03;;;12.90;99.90;;;;;;5071334;28;20180;-78
2023/11/01 05:12:19;;;;;;;0.10;0.10;;;12.90;99.90;;;;;;5070215;28;20225;-78
2023/11/01 05:14:45;;;;;;;0.10;0.10;;;12.90;99.90;;;;;;5069487;28;20216;-78
2023/11/01 05:17:11;;;;;;;0.10;0.10;;;13.00;99.90;;;;;;5070445;28;20189;-77
2023/11/01 05:19:36;;;;;;;0.10;0.10;;;12.90;99.90;;;;;;5070000;28;20182;-78
2023/11/01 05:22:02;;;;;;;0.10;0.10;;;12.90;99.90;;;;;;5065545;28;20202;-78
2023/11/01 05:24:28;;;;;;;0.10;0.10;;;12.90;99.90;;;;;;5069900;28;20689;-78
2023/11/01 05:26:53;;;;;;;0.10;0.10;;;12.90;99.90;;;;;;5066873;28;20314;-77
2023/11/01 05:29:19;;;;;;;0.10;0.10;;;12.80;99.90;;;;;;5070316;28;20928;-78
2023/11/01 05:31:44;;;;;;;0.10;0.10;;;12.70;99.90;;;;;;5063538;28;20596;-79
2023/11/01 05:34:11;;;;;;;0.10;0.10;;;12.70;99.90;;;;;;5064239;28;20179;-77
2023/11/01 05:36:38;;;;;;;0.10;0.10;;;12.80;99.90;;;;;;5070025;28;20265;-77
2023/11/01 05:39:05;;;;;;;0.10;0.10;;;12.70;99.90;;;;;;5070520;28;20202;-78
2023/11/01 05:41:31;;;;;;;0.10;0.10;;;12.70;99.90;;;;;;5067024;28;20210;-78
2023/11/01 05:43:57;;;;;;;0.10;0.10;;;12.60;99.90;;;;;;5069222;28;20267;-78
2023/11/01 05:46:22;;;;;;;0.10;0.10;;;12.70;99.90;;;;;;5069543;28;20617;-78
2023/11/01 05:48:48;;;;;;;0.10;0.10;;;12.60;99.90;;;;;;5069159;28;20751;-78
2023/11/01 05:51:15;;;;;;;0.10;0.10;;;12.50;99.90;;;;;;5069448;28;20256;-78
2023/11/01 05:53:41;;;;;;;0.10;0.10;;;12.70;99.90;;;;;;5067773;28;20549;-78
2023/11/01 05:56:08;;;;;;;0.10;0.10;;;12.80;99.90;;;;;;5070632;28;20211;-78
2023/11/01 05:58:34;;;;;;;0.10;0.10;;;12.90;99.90;;;;;;5069599;28;20563;-78
2023/11/01 06:01:00;;;;;;;0.10;0.10;;;12.90;99.90;;;;;;5070518;28;20263;-78
2023/11/01 06:03:26;;;;;;;0.10;0.10;;;13.00;99.90;;;;;;5072614;28;20219;-78
2023/11/01 06:05:52;;;;;;;0.10;0.10;;;13.00;99.90;;;;;;5072089;28;20243;-78
2023/11/01 06:08:18;;;;;;;0.10;0.10;;;13.00;99.90;;;;;;5070874;28;20184;-77
2023/11/01 06:10:44;;;;;;;0.10;0.10;;;13.00;99.90;;;;;;5069609;28;20191;-78
2023/11/01 06:13:10;;;;;;;0.10;0.10;;;13.10;99.90;;;;;;5070475;28;20271;-79
2023/11/01 06:15:36;;;;;;;0.10;0.10;;;13.00;99.90;;;;;;5068904;28;20643;-78
2023/11/01 06:18:06;;;;;;;0.10;0.10;;;13.10;99.90;;;;;;5062625;28;20182;-78
2023/11/01 06:20:35;;;;;;;0.10;0.10;;;13.10;99.90;;;;;;5068289;28;20202;-79
2023/11/01 06:23:04;;;;;;;0.10;0.10;;;13.10;99.90;;;;;;5072136;28;20204;-79
2023/11/01 06:25:30;;;;;;;0.10;0.10;;;13.20;99.90;;;;;;5081053;28;20225;-78
2023/11/01 06:27:56;;;;;;;0.10;0.10;;;13.20;99.90;;;;;;5071148;28;20710;-80
2023/11/01 06:30:24;;;;;;;0.10;0.10;;;13.20;99.90;;;;;;5062761;28;20193;-80
2023/11/01 06:32:49;;;;;;;0.10;0.10;;;13.20;99.90;;;;;;5084028;28;20284;-79
2023/11/01 06:35:15;;;;;;;0.10;0.10;;;13.20;99.90;;;;;;5058746;28;20646;-79
2023/11/01 06:37:43;;;;;;;0.10;0.10;;;13.20;99.90;;;;;;5069218;28;20191;-79
2023/11/01 06:40:09;;;;;;;0.03;0.03;;;13.20;99.90;;;;;;5068286;28;20188;-79
2023/11/01 06:42:35;;;;;;;0.10;0.10;;;13.20;99.90;;;;;;5069940;28;20207;-79
2023/11/01 06:45:01;;;;;;;0.10;0.10;;;13.20;99.90;;;;;;5070581;28;20188;-79
2023/11/01 06:47:26;;;;;;;0.10;0.10;;;13.30;99.90;;;;;;5066080;28;20268;-78
2023/11/01 06:49:52;;;;;;;0.10;0.10;;;13.30;99.90;;;;;;5064420;28;20185;-78
2023/11/01 06:52:18;;;;;;;0.10;0.10;;;13.20;99.90;;;;;;5068429;28;20298;-78
2023/11/01 06:54:43;;;;;;;0.10;0.10;;;13.20;99.90;;;;;;5066865;28;20172;-79
2023/11/01 06:57:10;;;;;;;0.10;0.10;;;13.20;99.90;;;;;;5064664;28;20183;-78
2023/11/01 06:59:38;;;;;;;0.10;0.10;;;13.30;99.90;;;;;;5068146;28;20198;-78
2023/11/01 07:02:07;;;;;;;0.10;0.10;;;13.20;99.90;;;;;;5060568;28;20571;-78
2023/11/01 07:04:33;;;;;;;0.10;0.10;;;13.30;99.90;;;;;;5067372;28;20189;-78
2023/11/01 07:06:58;;;;;;;0.10;0.10;;;13.20;99.90;;;;;;5064464;28;20205;-79
2023/11/01 07:09:24;;;;;;;0.10;0.10;;;13.30;99.90;;;;;;5069098;28;20186;-79
2023/11/01 07:11:49;;;;;;;0.10;0.10;;;13.40;99.90;;;;;;5069007;28;20250;-78
2023/11/01 07:14:16;;;;;;;0.10;0.10;;;13.50;99.90;;;;;;5061103;28;20321;-78
2023/11/01 07:16:42;;;;;;;0.10;0.10;;;13.50;99.90;;;;;;5067005;28;20183;-78
2023/11/01 07:19:08;;;;;;;0.10;0.10;;;13.50;99.90;;;;;;5068646;28;20188;-79
2023/11/01 07:21:33;;;;;;;0.10;0.10;;;13.50;99.90;;;;;;5067728;28;20220;-78
2023/11/01 07:23:59;;;;;;;0.10;0.10;;;13.50;99.90;;;;;;5068375;28;20187;-79
2023/11/01 07:26:25;;;;;;;0.10;0.10;;;13.40;99.90;;;;;;5063446;28;20210;-78
2023/11/01 07:28:50;;;;;;;0.10;0.10;;;13.50;99.90;;;;;;5064672;28;20185;-78
2023/11/01 07:31:16;;;;;;;0.10;0.10;;;13.50;99.90;;;;;;5066303;28;20214;-78
2023/11/01 07:33:42;;;;;;;0.10;0.10;;;13.50;99.90;;;;;;5070543;28;20200;-78
2023/11/01 07:36:09;;;;;;;0.10;0.10;;;13.50;99.90;;;;;;5070778;28;20219;-79
2023/11/01 07:38:35;;;;;;;0.10;0.10;;;13.50;99.90;;;;;;5064978;28;20207;-79
2023/11/01 07:41:01;;;;;;;0.10;0.10;;;13.60;99.90;;;;;;5063189;28;20202;-79
2023/11/01 07:43:26;;;;;;;0.10;0.10;;;13.60;99.90;;;;;;5070083;28;20200;-79
2023/11/01 07:45:53;;;;;;;0.10;0.10;;;13.60;99.90;;;;;;5070277;28;20186;-79
2023/11/01 07:48:18;;;;;;;0.10;0.10;;;13.50;99.90;;;;;;5071219;28;20375;-79
2023/11/01 07:50:44;;;;;;;0.10;0.10;;;13.50;99.90;;;;;;5072999;28;20661;-79
2023/11/01 07:53:10;;;;;;;0.10;0.10;;;13.50;99.90;;;;;;5069361;28;20187;-79
2023/11/01 07:55:35;;;;;;;0.10;0.10;;;13.60;99.90;;;;;;5072192;28;20179;-79
2023/11/01 07:58:01;;;;;;;0.10;0.10;;;13.70;99.90;;;;;;5071502;28;20190;-79
2023/11/01 08:00:27;;;;;;;0.10;0.10;;;13.80;99.90;;;;;;5072849;28;20195;-79
2023/11/01 08:02:55;;;;;;;0.10;0.10;;;13.80;99.90;;;;;;5071237;28;20219;-79
2023/11/01 08:05:22;;;;;;;0.10;0.10;;;13.90;99.90;;;;;;5072906;28;20275;-79
2023/11/01 08:07:48;;;;;;;0.10;0.10;;;13.80;99.90;;;;;;5071694;28;20211;-80
2023/11/01 08:10:14;;;;;;;0.10;0.10;;;13.80;99.90;;;;;;5072782;28;20613;-79
2023/11/01 08:12:40;;;;;;;0.10;0.10;;;13.80;99.90;;;;;;5069679;28;20255;-79
2023/11/01 08:15:06;;;;;;;0.10;0.10;;;13.90;99.90;;;;;;5070211;28;20659;-79
2023/11/01 08:17:32;;;;;;;0.10;0.10;;;14.10;99.90;;;;;;5070731;28;20667;-79
2023/11/01 08:19:58;;;;;;;0.10;0.10;;;14.30;99.90;;;;;;5072459;28;20248;-79
2023/11/01 08:22:24;;;;;;;0.10;0.10;;;14.40;99.90;;;;;;5068065;28;20216;-79
2023/11/01 08:24:50;;;;;;;0.10;0.10;;;14.60;99.90;;;;;;5072322;28;20184;-79
2023/11/01 08:27:16;;;;;;;0.10;0.10;;;14.70;99.90;;;;;;5070416;28;20212;-79
2023/11/01 08:29:43;;;;;;;0.10;0.10;;;14.70;99.90;;;;;;5070924;28;20276;-78
2023/11/01 08:32:10;;;;;;;0.10;0.10;;;14.70;99.90;;;;;;5070227;28;20215;-78
2023/11/01 08:34:35;;;;;;;0.10;0.10;;;14.80;99.90;;;;;;5070653;28;20181;-78
2023/11/01 08:37:02;;;;;;;0.10;0.10;;;14.90;99.90;;;;;;5072094;28;20191;-78
2023/11/01 08:39:27;;;;;;;0.10;0.10;;;15.20;99.90;;;;;;5071881;28;20177;-78
2023/11/01 08:41:53;;;;;;;0.10;0.10;;;15.30;99.90;;;;;;5070102;28;20203;-78
2023/11/01 08:44:18;;;;;;;0.10;0.10;;;15.30;99.90;;;;;;5069500;28;20601;-78
2023/11/01 08:46:47;;;;;;;0.10;0.10;;;15.30;99.90;;;;;;5068768;28;20235;-78
2023/11/01 08:49:13;;;;;;;0.10;0.10;;;15.20;99.90;;;;;;5071494;28;20189;-78
2023/11/01 08:51:39;;;;;;;0.10;0.10;;;15.00;99.90;;;;;;5071304;28;20255;-78
2023/11/01 08:54:06;;;;;;;0.10;0.10;;;15.10;99.90;;;;;;5068301;28;20578;-79
2023/11/01 08:56:31;;;;;;;0.10;0.10;;;14.90;99.90;;;;;;5066413;28;20504;-78
2023/11/01 08:58:57;;;;;;;0.10;0.10;;;14.80;99.90;;;;;;5069453;28;20206;-79
2023/11/01 09:01:24;;;;;;;0.10;0.10;;;14.80;99.90;;;;;;5067875;28;20586;-78
2023/11/01 09:03:50;;;;;;;0.10;0.10;;;14.70;99.90;;;;;;5069116;28;20187;-79
2023/11/01 09:06:15;;;;;;;0.10;0.10;;;14.60;99.90;;;;;;5070980;28;20209;-80
2023/11/01 09:08:41;;;;;;;0.10;0.10;;;14.50;99.90;;;;;;5067013;28;20287;-79
2023/11/01 09:11:06;;;;;;;0.10;0.10;;;14.50;99.90;;;;;;5065012;28;20768;-79
2023/11/01 09:13:32;;;;;;;0.10;0.10;;;14.60;99.90;;;;;;5069592;28;20192;-79
2023/11/01 09:15:57;;;;;;;0.10;0.10;;;14.70;99.90;;;;;;5068550;28;20184;-79
2023/11/01 09:18:23;;;;;;;0.10;0.10;;;14.70;99.90;;;;;;5072037;28;20254;-79
2023/11/01 09:20:49;;;;;;;0.10;0.10;;;14.80;99.90;;;;;;5071358;28;20196;-79
2023/11/01 09:23:14;;;;;;;0.10;0.10;;;14.70;99.90;;;;;;5064666;28;20180;-79
2023/11/01 09:25:40;;;;;;;0.10;0.10;;;14.70;99.90;;;;;;5073895;28;20192;-79
2023/11/01 09:28:06;;;;;;;0.10;0.10;;;14.70;99.90;;;;;;5066928;28;20177;-78
2023/11/01 09:30:31;;;;;;;0.10;0.10;;;14.90;99.90;;;;;;5067548;28;20233;-78
2023/11/01 09:32:57;;;;;;;0.10;0.10;;;15.00;99.90;;;;;;5064064;28;20242;-80
2023/11/01 09:35:22;;;;;;;0.10;0.10;;;15.10;99.90;;;;;;5069997;28;20274;-79
2023/11/01 09:37:48;;;;;;;0.10;0.10;;;15.20;99.90;;;;;;5067978;28;20696;-80
2023/11/01 09:40:14;;;;;;;0.10;0.10;;;15.20;99.90;;;;;;5063384;28;20234;-79
2023/11/01 09:42:40;;;;;;;0.10;0.10;;;15.30;99.90;;;;;;5063011;28;20268;-80
2023/11/01 09:45:10;;;;;;;0.10;0.10;;;15.40;99.90;;;;;;5063931;28;20189;-79
2023/11/01 09:47:37;;;;;;;0.10;0.10;;;15.40;99.90;;;;;;5068078;28;20212;-78
2023/11/01 09:50:03;;;;;;;0.10;0.10;;;15.50;99.90;;;;;;5063260;28;21520;-78
2023/11/01 09:52:30;;;;;;;0.10;0.10;;;15.50;99.90;;;;;;5069209;28;20627;-79
2023/11/01 09:54:56;;;;;;;0.10;0.10;;;15.60;99.90;;;;;;5074081;28;20187;-78
2023/11/01 09:57:25;;;;;;;0.10;0.10;;;15.70;99.90;;;;;;5061799;28;20191;-78
2023/11/01 09:59:51;;;;;;;0.10;0.10;;;15.70;99.90;;;;;;5060504;28;20181;-77
2023/11/01 10:02:17;;;;;;;0.10;0.10;;;15.80;99.90;;;;;;5066393;28;20201;-78
2023/11/01 10:04:46;;;;;;;0.10;0.10;;;15.80;99.90;;;;;;5068161;28;20188;-79
2023/11/01 10:07:11;;;;;;;0.10;0.10;;;15.80;99.90;;;;;;5067609;28;20207;-78
2023/11/01 10:09:38;;;;;;;0.10;0.10;;;15.70;99.90;;;;;;5063764;28;20181;-78
2023/11/01 10:12:07;;;;;;;0.10;0.10;;;15.50;99.90;;;;;;5058333;28;20213;-78
2023/11/01 10:14:35;;;;;;;0.10;0.10;;;15.50;99.90;;;;;;5067865;28;20187;-78
2023/11/01 10:17:01;;;;;;;0.10;0.10;;;15.30;99.90;;;;;;5064965;28;20185;-78
2023/11/01 10:19:27;;;;;;;0.10;0.10;;;15.10;99.90;;;;;;5059485;28;20247;-78
2023/11/01 10:21:53;;;;;;;0.10;0.10;;;15.10;99.90;;;;;;5061274;28;20757;-78
2023/11/01 10:24:25;;;;;;;0.10;0.10;;;15.00;99.90;;;;;;5059553;28;20227;-78
2023/11/01 10:26:54;;;;;;;0.10;0.10;;;15.00;99.90;;;;;;5066661;28;20213;-78
2023/11/01 10:29:20;;;;;;;0.10;0.10;;;14.90;99.90;;;;;;5063637;28;20189;-78
2023/11/01 10:31:55;;;;;;;0.10;0.10;;;14.90;99.90;;;;;;5061884;28;20211;-78
2023/11/01 10:34:29;;;;;;;0.10;0.10;;;14.90;99.90;;;;;;5063168;28;20180;-79
2023/11/01 10:36:57;;;;;;;0.10;0.10;;;14.90;99.90;;;;;;5067906;28;20208;-79
2023/11/01 10:39:23;;;;;;;0.10;0.10;;;15.00;99.90;;;;;;5067579;28;20282;-78
2023/11/01 10:41:50;;;;;;;0.10;0.10;;;15.00;99.90;;;;;;5062424;28;20488;-78
2023/11/01 10:44:17;;;;;;;0.10;0.10;;;15.10;99.90;;;;;;5058212;28;20212;-78
2023/11/01 10:46:43;;;;;;;0.10;0.10;;;15.20;99.90;;;;;;5068708;28;20228;-78
2023/11/01 10:49:10;;;;;;;0.10;0.10;;;15.20;99.90;;;;;;5061692;28;20272;-78
2023/11/01 10:51:37;;;;;;;0.10;0.10;;;15.20;99.90;;;;;;5061218;28;20205;-78
2023/11/01 10:54:03;;;;;;;0.10;0.10;;;15.30;99.90;;;;;;5065569;28;20213;-78
2023/11/01 10:56:28;;;;;;;0.10;0.10;;;15.30;99.90;;;;;;5067338;28;20199;-78
2023/11/01 10:59:01;;;;;;;0.10;0.10;;;15.30;99.90;;;;;;5064726;28;20696;-78
2023/11/01 11:01:33;;;;;;;0.10;0.10;;;15.30;99.90;;;;;;5066403;28;20205;-79
2023/11/01 11:04:10;;;;;;;0.10;0.10;;;15.30;99.90;;;;;;5068891;28;20219;-79
2023/11/01 11:06:47;;;;;;;0.10;0.10;;;15.40;99.90;;;;;;5069283;28;20200;-78
2023/11/01 11:09:27;;;;;;;0.10;0.10;;;15.40;99.90;;;;;;5066570;28;20184;-78
2023/11/01 11:12:15;;;;;;;0.10;0.10;;;15.40;99.90;;;;;;5068220;28;20213;-78
2023/11/01 11:14:42;;;;;;;0.10;0.10;;;15.50;99.90;;;;;;5061527;28;20301;-78
2023/11/01 11:17:19;;;;;;;0.10;0.10;;;15.60;99.90;;;;;;5066647;28;20184;-78
2023/11/01 11:20:10;;;;;;;0.10;0.10;;;15.80;99.90;;;;;;5067415;28;20173;-78
2023/11/01 11:23:02;;;;;;;0.10;0.10;;;16.00;99.90;;;;;;5064585;28;20817;-78
2023/11/01 11:25:44;;;;;;;0.10;0.10;;;16.00;99.90;;;;;;5064902;28;20301;-78
2023/11/01 11:28:47;;;;;;;0.10;0.10;;;16.10;99.90;;;;;;5065182;28;20299;-79
2023/11/01 11:31:20;;;;;;;0.10;0.10;;;16.20;99.90;;;;;;5062083;28;20246;-79
2023/11/01 11:33:46;;;;;;;0.10;0.10;;;16.20;99.90;;;;;;5067826;28;20650;-79
2023/11/01 11:36:14;;;;;;;0.10;0.10;;;16.20;99.90;;;;;;5058306;28;20200;-79
2023/11/01 11:39:00;;;;;;;0.10;0.10;;;16.20;99.90;;;;;;5051296;28;20207;-79
2023/11/01 11:41:27;;;;;;;0.10;0.10;;;16.30;99.90;;;;;;5057999;28;20239;-79
2023/11/01 11:44:13;;;;;;;0.10;0.10;;;16.40;99.90;;;;;;5056762;28;20220;-79
2023/11/01 11:46:48;;;;;;;0.10;0.10;;;16.50;99.90;;;;;;5065209;28;20250;-79
2023/11/01 11:49:23;;;;;;;0.10;0.10;;;16.70;99.90;;;;;;5066234;28;20663;-79
2023/11/01 11:51:51;;;;;;;0.10;0.10;;;16.80;99.90;;;;;;5066565;28;20204;-78
2023/11/01 11:54:17;;;;;;;0.10;0.10;;;16.80;99.90;;;;;;5065347;28;20319;-79
2023/11/01 11:56:43;;;;;;;0.10;0.10;;;16.80;99.90;;;;;;5067882;28;20652;-79
2023/11/01 11:59:10;;;;;;;0.10;0.10;;;16.80;99.90;;;;;;5063039;28;20276;-79
2023/11/01 12:01:36;;;;;;;0.10;0.10;;;16.90;99.90;;;;;;5064516;28;20632;-79
2023/11/01 12:04:05;;;;;;;0.10;0.10;;;16.90;99.90;;;;;;5060736;28;20280;-80
2023/11/01 12:06:47;;;;;;;0.10;0.10;;;17.10;99.90;;;;;;5070045;28;20218;-79
2023/11/01 12:09:18;;;;;;;0.10;0.10;;;17.30;99.90;;;;;;5070472;28;20211;-79
2023/11/01 12:11:49;;;;;;;0.13;0.13;;;17.20;99.90;;;;;;5068349;28;20220;-79
2023/11/01 12:14:27;;;;;;;0.10;0.10;;;17.00;99.90;;;;;;5068178;28;20200;-79
2023/11/01 12:16:54;;;;;;;0.10;0.10;;;17.10;99.90;;;;;;5065314;28;20616;-80
2023/11/01 12:19:21;;;;;;;0.10;0.10;;;17.00;99.90;;;;;;5067954;28;20797;-79
2023/11/01 12:21:52;;;;;;;0.10;0.10;;;16.90;99.90;;;;;;5070501;28;20215;-79
2023/11/01 12:24:22;;;;;;;0.10;0.10;;;16.70;99.90;;;;;;5072031;28;20215;-80
2023/11/01 12:27:05;;;;;;;0.10;0.10;;;16.80;99.90;;;;;;5069916;28;20232;-79
2023/11/01 12:29:36;;;;;;;0.10;0.10;;;16.90;99.90;;;;;;5069429;28;20555;-79
2023/11/01 12:32:28;;;;;;;0.10;0.10;;;16.90;99.90;;;;;;5069137;28;20220;-79
2023/11/01 12:34:57;;;;;;;0.10;0.10;;;17.20;99.90;;;;;;5072095;28;20180;-79
2023/11/01 12:37:24;;;;;;;0.10;0.10;;;17.20;99.90;;;;;;5064260;28;20192;-79
2023/11/01 12:39:58;;;;;;;0.10;0.10;;;17.00;99.90;;;;;;5062037;28;20219;-79
2023/11/01 12:42:26;;;;;;;0.10;0.10;;;16.80;99.90;;;;;;5066542;28;20703;-79
2023/11/01 12:44:53;;;;;;;0.10;0.10;;;16.70;99.90;;;;;;5066823;28;20193;-79
2023/11/01 12:47:20;;;;;;;0.10;0.10;;;16.60;99.90;;;;;;5062686;28;20212;-79